createdAt,value
2018-09-10T00:00:22.945Z,12.60
2018-09-10T00:02:50.499Z,12.60
2018-09-10T00:05:18.112Z,12.50
2018-09-10T00:07:45.648Z,12.50
2018-09-10T00:10:13.196Z,12.50
2018-09-10T00:12:40.731Z,12.40
2018-09-10T00:15:08.301Z,12.40
2018-09-10T00:17:35.860Z,12.40
2018-09-10T00:20:03.519Z,12.30
2018-09-10T00:22:31.069Z,12.30
2018-09-10T00:24:58.628Z,12.30
2018-09-10T00:27:26.191Z,12.20
2018-09-10T00:29:53.757Z,12.20
2018-09-10T00:32:21.328Z,12.10
2018-09-10T00:34:48.884Z,12.10
2018-09-10T00:37:16.448Z,12.00
2018-09-10T00:39:43.995Z,12.00
2018-09-10T00:42:11.562Z,12.00
2018-09-10T00:44:39.213Z,12.00
2018-09-10T00:47:06.720Z,11.90
2018-09-10T00:49:34.244Z,12.00
2018-09-10T00:52:01.828Z,12.00
2018-09-10T00:54:29.426Z,11.90
2018-09-10T00:56:57.009Z,11.80
2018-09-10T00:59:24.586Z,11.80
2018-09-10T01:01:52.156Z,11.80
2018-09-10T01:04:19.692Z,11.80
2018-09-10T01:06:47.260Z,11.70
2018-09-10T01:09:14.805Z,11.70
2018-09-10T01:11:42.354Z,11.70
2018-09-10T01:14:09.881Z,11.70
2018-09-10T01:16:37.447Z,11.70
2018-09-10T01:19:05.029Z,11.70
2018-09-10T01:21:32.604Z,11.70
2018-09-10T01:24:00.156Z,11.60
2018-09-10T01:26:27.711Z,11.60
2018-09-10T01:28:55.288Z,11.60
2018-09-10T01:31:22.864Z,11.60
2018-09-10T01:33:56.636Z,11.50
2018-09-10T01:36:24.235Z,11.50
2018-09-10T01:38:51.816Z,11.50
2018-09-10T01:41:19.967Z,11.50
2018-09-10T01:43:47.512Z,11.50
2018-09-10T01:46:16.068Z,11.40
2018-09-10T01:48:43.668Z,11.40
2018-09-10T01:51:11.250Z,11.40
2018-09-10T01:53:38.873Z,11.40
2018-09-10T01:56:06.456Z,11.40
2018-09-10T01:58:34.000Z,11.30
2018-09-10T02:01:01.551Z,11.30
2018-09-10T02:03:29.189Z,11.30
2018-09-10T02:05:56.838Z,11.20
2018-09-10T02:08:24.374Z,11.30
2018-09-10T02:10:51.938Z,11.20
2018-09-10T02:13:19.456Z,11.20
2018-09-10T02:15:49.454Z,11.10
2018-09-10T02:18:17.633Z,11.10
2018-09-10T02:20:45.510Z,11.10
2018-09-10T02:23:13.060Z,11.00
2018-09-10T02:25:40.929Z,11.00
2018-09-10T02:28:08.510Z,11.00
2018-09-10T02:30:36.094Z,11.00
2018-09-10T02:33:04.428Z,10.90
2018-09-10T02:35:31.976Z,10.90
2018-09-10T02:37:59.511Z,10.90
2018-09-10T02:40:27.096Z,10.90
2018-09-10T02:42:54.699Z,10.90
2018-09-10T02:45:22.274Z,10.90
2018-09-10T02:47:49.843Z,10.90
2018-09-10T02:50:17.408Z,10.80
2018-09-10T02:52:44.935Z,10.80
2018-09-10T02:55:12.548Z,10.70
2018-09-10T02:57:40.166Z,10.70
2018-09-10T03:00:08.314Z,10.70
2018-09-10T03:02:35.875Z,10.70
2018-09-10T03:05:03.497Z,10.70
2018-09-10T03:07:31.153Z,10.60
2018-09-10T03:09:58.751Z,10.60
2018-09-10T03:12:26.297Z,10.60
2018-09-10T03:14:53.876Z,10.60
2018-09-10T03:17:21.481Z,10.50
2018-09-10T03:19:49.063Z,10.50
2018-09-10T03:22:16.627Z,10.50
2018-09-10T03:24:44.202Z,10.50
2018-09-10T03:27:11.753Z,10.50
2018-09-10T03:29:39.292Z,10.50
2018-09-10T03:32:06.928Z,10.40
2018-09-10T03:34:34.505Z,10.40
2018-09-10T03:37:02.083Z,10.40
2018-09-10T03:39:29.632Z,10.30
2018-09-10T03:41:57.177Z,10.30
2018-09-10T03:44:24.735Z,10.30
2018-09-10T03:46:52.262Z,10.20
2018-09-10T03:49:19.909Z,10.20
2018-09-10T03:51:47.467Z,10.20
2018-09-10T03:54:15.012Z,10.20
2018-09-10T03:56:42.562Z,10.20
2018-09-10T03:59:10.140Z,10.20
2018-09-10T04:01:38.017Z,10.10
2018-09-10T04:04:05.614Z,10.10
2018-09-10T04:06:33.188Z,10.10
2018-09-10T04:09:00.708Z,10.10
2018-09-10T04:11:28.271Z,10.10
2018-09-10T04:13:55.807Z,10.10
2018-09-10T04:16:23.361Z,10.00
2018-09-10T04:18:50.913Z,10.00
2018-09-10T04:21:18.552Z,10.00
2018-09-10T04:23:46.129Z,10.00
2018-09-10T04:26:13.685Z,10.00
2018-09-10T04:28:41.215Z,9.90
2018-09-10T04:31:08.782Z,9.90
2018-09-10T04:33:36.316Z,9.90
2018-09-10T04:36:03.998Z,9.90
2018-09-10T04:38:31.488Z,9.90
2018-09-10T04:40:59.155Z,9.90
2018-09-10T04:43:29.268Z,9.90
2018-09-10T04:45:56.885Z,9.90
2018-09-10T04:48:24.948Z,9.90
2018-09-10T04:50:52.542Z,9.90
2018-09-10T04:53:20.113Z,9.90
2018-09-10T04:55:47.648Z,9.80
2018-09-10T04:58:15.251Z,9.80
2018-09-10T05:00:42.765Z,9.80
2018-09-10T05:03:10.332Z,9.80
2018-09-10T05:05:37.891Z,9.80
2018-09-10T05:08:05.450Z,9.80
2018-09-10T05:10:33.014Z,9.80
2018-09-10T05:13:00.536Z,9.80
2018-09-10T05:15:28.036Z,9.90
2018-09-10T05:17:55.569Z,9.90
2018-09-10T05:20:23.064Z,9.90
2018-09-10T05:22:50.621Z,9.90
2018-09-10T05:25:18.172Z,10.00
2018-09-10T05:27:45.815Z,10.00
2018-09-10T05:30:13.342Z,10.00
2018-09-10T05:32:40.897Z,10.10
2018-09-10T05:35:08.407Z,10.10
2018-09-10T05:37:36.168Z,10.20
2018-09-10T05:40:05.449Z,10.30
2018-09-10T05:42:33.015Z,10.40
2018-09-10T05:45:00.639Z,10.50
2018-09-10T05:47:28.330Z,10.70
2018-09-10T05:49:55.840Z,10.80
2018-09-10T05:52:23.416Z,10.90
2018-09-10T05:54:50.964Z,11.10
2018-09-10T05:57:18.511Z,11.20
2018-09-10T05:59:46.064Z,11.30
2018-09-10T06:02:13.587Z,11.50
2018-09-10T06:04:41.193Z,11.70
2018-09-10T06:07:08.744Z,12.20
2018-09-10T06:09:36.318Z,12.80
2018-09-10T06:12:03.865Z,13.50
2018-09-10T06:14:31.404Z,14.30
2018-09-10T06:16:58.957Z,15.30
2018-09-10T06:19:26.540Z,16.30
2018-09-10T06:21:54.134Z,17.20
2018-09-10T06:24:21.663Z,17.90
2018-09-10T06:26:49.196Z,18.80
2018-09-10T06:29:16.767Z,19.60
2018-09-10T06:31:44.389Z,20.50
2018-09-10T06:34:12.055Z,21.30
2018-09-10T06:36:39.549Z,22.20
2018-09-10T06:39:09.023Z,23.00
2018-09-10T06:41:36.596Z,23.90
2018-09-10T06:44:04.111Z,24.80
2018-09-10T06:46:31.708Z,25.60
2018-09-10T06:48:59.244Z,26.40
2018-09-10T06:51:26.769Z,27.30
2018-09-10T06:53:54.289Z,28.10
2018-09-10T06:56:21.877Z,28.80
2018-09-10T06:58:49.421Z,29.60
2018-09-10T07:01:16.960Z,30.40
2018-09-10T07:03:44.499Z,31.20
2018-09-10T07:06:12.119Z,32.10
2018-09-10T07:08:39.769Z,32.80
2018-09-10T07:11:07.322Z,33.30
2018-09-10T07:13:34.879Z,33.70
2018-09-10T07:16:02.430Z,34.20
2018-09-10T07:18:30.019Z,34.70
2018-09-10T07:20:57.675Z,35.30
2018-09-10T07:23:25.219Z,35.70
2018-09-10T07:25:52.812Z,36.30
2018-09-10T07:28:20.360Z,37.00
2018-09-10T07:30:47.978Z,37.90
2018-09-10T07:33:15.533Z,38.50
2018-09-10T07:35:43.396Z,38.90
2018-09-10T07:38:10.967Z,39.00
2018-09-10T07:40:38.491Z,39.20
2018-09-10T07:43:06.103Z,39.30
2018-09-10T07:45:33.651Z,39.50
2018-09-10T07:48:01.217Z,39.90
2018-09-10T07:50:29.643Z,40.30
2018-09-10T07:52:57.143Z,40.80
2018-09-10T07:55:25.265Z,41.50
2018-09-10T07:57:52.800Z,42.40
2018-09-10T08:00:20.382Z,43.00
2018-09-10T08:02:48.182Z,43.50
2018-09-10T08:05:15.697Z,44.00
2018-09-10T08:07:43.229Z,44.60
2018-09-10T08:10:10.785Z,45.40
2018-09-10T08:12:38.307Z,46.10
2018-09-10T08:15:05.939Z,46.80
2018-09-10T08:17:33.617Z,47.10
2018-09-10T08:20:01.170Z,47.50
2018-09-10T08:22:28.736Z,47.80
2018-09-10T08:24:56.306Z,48.40
2018-09-10T08:27:23.819Z,49.00
2018-09-10T08:29:51.327Z,49.30
2018-09-10T08:32:18.878Z,49.60
2018-09-10T08:34:46.408Z,49.80
2018-09-10T08:37:13.991Z,49.20
2018-09-10T08:39:41.608Z,49.20
2018-09-10T08:42:09.159Z,48.90
2018-09-10T08:44:36.820Z,48.80
2018-09-10T08:47:04.432Z,49.00
2018-09-10T08:49:31.990Z,49.20
2018-09-10T08:51:59.636Z,49.40
2018-09-10T08:54:27.392Z,48.80
2018-09-10T08:56:54.869Z,48.80
2018-09-10T08:59:22.496Z,49.00
2018-09-10T09:01:50.101Z,49.00
2018-09-10T09:04:17.636Z,48.40
2018-09-10T09:06:45.246Z,48.00
2018-09-10T09:09:12.794Z,48.00
2018-09-10T09:11:40.314Z,47.80
2018-09-10T09:14:08.205Z,47.40
2018-09-10T09:16:35.741Z,47.40
2018-09-10T09:19:03.311Z,47.60
2018-09-10T09:21:30.843Z,48.00
2018-09-10T09:23:58.520Z,47.80
2018-09-10T09:26:26.091Z,47.40
2018-09-10T09:28:53.667Z,47.90
2018-09-10T09:31:21.234Z,48.70
2018-09-10T09:33:48.763Z,50.00
2018-09-10T09:36:22.055Z,51.30
2018-09-10T09:38:55.136Z,52.20
2018-09-10T09:41:28.431Z,52.70
2018-09-10T09:44:01.507Z,53.10
2018-09-10T09:46:29.203Z,53.30
2018-09-10T09:48:56.744Z,53.40
2018-09-10T09:51:24.300Z,53.40
2018-09-10T09:53:51.819Z,53.30
2018-09-10T09:56:19.359Z,52.60
2018-09-10T09:58:46.905Z,52.10
2018-09-10T10:01:21.124Z,51.80
2018-09-10T10:03:56.190Z,52.10
2018-09-10T10:06:24.407Z,52.70
2018-09-10T10:08:52.240Z,52.10
2018-09-10T10:11:19.866Z,52.10
2018-09-10T10:13:47.388Z,51.90
2018-09-10T10:16:15.033Z,51.50
2018-09-10T10:18:42.588Z,51.00
2018-09-10T10:21:10.095Z,50.80
2018-09-10T10:23:37.718Z,50.20
2018-09-10T10:26:05.220Z,49.50
2018-09-10T10:28:33.154Z,49.40
2018-09-10T10:31:00.820Z,49.20
2018-09-10T10:33:28.387Z,48.40
2018-09-10T10:35:55.934Z,47.70
2018-09-10T10:38:23.547Z,46.90
2018-09-10T10:40:51.088Z,47.30
2018-09-10T10:43:18.679Z,47.50
2018-09-10T10:45:46.235Z,48.50
2018-09-10T10:48:13.762Z,49.40
2018-09-10T10:50:41.300Z,50.00
2018-09-10T10:53:08.823Z,50.50
2018-09-10T10:55:36.463Z,51.70
2018-09-10T10:58:04.041Z,52.50
2018-09-10T11:00:31.605Z,52.50
2018-09-10T11:02:59.109Z,52.90
2018-09-10T11:05:26.664Z,53.30
2018-09-10T11:07:54.195Z,53.70
2018-09-10T11:10:21.849Z,54.20
2018-09-10T11:12:49.417Z,54.50
2018-09-10T11:15:17.023Z,54.10
2018-09-10T11:17:44.563Z,53.30
2018-09-10T11:20:12.076Z,53.00
2018-09-10T11:22:39.667Z,53.20
2018-09-10T11:25:09.828Z,53.20
2018-09-10T11:27:37.448Z,52.70
2018-09-10T11:30:05.341Z,51.90
2018-09-10T11:32:32.920Z,51.50
2018-09-10T11:35:00.609Z,51.80
2018-09-10T11:37:28.127Z,52.30
2018-09-10T11:39:55.679Z,50.60
2018-09-10T11:42:23.223Z,49.00
2018-09-10T11:44:50.817Z,48.50
2018-09-10T11:47:18.388Z,47.80
2018-09-10T11:49:45.982Z,47.00
2018-09-10T11:52:13.789Z,45.90
2018-09-10T11:54:41.336Z,45.80
2018-09-10T11:57:08.860Z,46.30
2018-09-10T11:59:36.453Z,46.30
2018-09-10T12:02:04.921Z,45.60
2018-09-10T12:04:32.412Z,45.30
2018-09-10T12:06:59.946Z,44.90
2018-09-10T12:09:28.502Z,45.10
2018-09-10T12:11:56.078Z,45.30
2018-09-10T12:14:23.600Z,45.50
2018-09-10T12:16:51.148Z,45.80
2018-09-10T12:19:18.719Z,46.40
2018-09-10T12:21:46.233Z,46.60
2018-09-10T12:24:13.799Z,46.50
2018-09-10T12:26:41.395Z,46.60
2018-09-10T12:29:08.860Z,47.20
2018-09-10T12:31:36.472Z,48.30
2018-09-10T12:34:04.013Z,48.00
2018-09-10T12:36:31.518Z,47.90
2018-09-10T12:38:59.219Z,47.60
2018-09-10T12:41:26.788Z,47.70
2018-09-10T12:43:54.418Z,46.60
2018-09-10T12:46:21.998Z,46.10
2018-09-10T12:48:49.656Z,46.30
2018-09-10T12:51:17.233Z,46.60
2018-09-10T12:53:44.831Z,46.70
2018-09-10T12:56:12.355Z,45.90
2018-09-10T12:58:39.943Z,45.80
2018-09-10T13:01:07.502Z,46.00
2018-09-10T13:03:35.063Z,45.60
2018-09-10T13:06:02.814Z,45.20
2018-09-10T13:08:30.369Z,44.50
2018-09-10T13:10:57.997Z,44.20
2018-09-10T13:13:25.540Z,44.20
2018-09-10T13:15:53.117Z,43.40
2018-09-10T13:18:20.764Z,43.40
2018-09-10T13:20:48.404Z,44.20
2018-09-10T13:23:15.990Z,44.40
2018-09-10T13:25:43.568Z,44.70
2018-09-10T13:28:11.182Z,45.00
2018-09-10T13:30:38.723Z,44.90
2018-09-10T13:33:06.287Z,45.00
2018-09-10T13:35:33.905Z,45.00
2018-09-10T13:38:01.433Z,44.60
2018-09-10T13:40:28.958Z,43.80
2018-09-10T13:42:56.553Z,42.60
2018-09-10T13:45:24.107Z,42.30
2018-09-10T13:47:52.344Z,41.90
2018-09-10T13:50:19.955Z,41.40
2018-09-10T13:52:47.533Z,41.10
2018-09-10T13:55:15.081Z,41.20
2018-09-10T13:57:42.608Z,41.40
2018-09-10T14:00:10.192Z,41.50
2018-09-10T14:02:37.748Z,41.10
2018-09-10T14:05:05.877Z,40.50
2018-09-10T14:07:33.455Z,40.30
2018-09-10T14:10:01.231Z,40.40
2018-09-10T14:12:28.782Z,41.20
2018-09-10T14:14:56.389Z,42.00
2018-09-10T14:17:23.970Z,42.50
2018-09-10T14:19:51.593Z,42.10
2018-09-10T14:22:20.003Z,41.10
2018-09-10T14:24:47.530Z,40.10
2018-09-10T14:27:15.149Z,39.80
2018-09-10T14:29:42.690Z,39.40
2018-09-10T14:32:10.195Z,39.10
2018-09-10T14:34:37.899Z,38.20
2018-09-10T14:37:05.548Z,37.30
2018-09-10T14:39:33.152Z,36.20
2018-09-10T14:42:00.713Z,35.50
2018-09-10T14:44:28.254Z,35.30
2018-09-10T14:46:55.839Z,35.20
2018-09-10T14:49:23.452Z,35.40
2018-09-10T14:51:51.114Z,35.40
2018-09-10T14:54:18.785Z,35.40
2018-09-10T14:56:46.351Z,35.40
2018-09-10T14:59:13.893Z,35.20
2018-09-10T15:01:41.458Z,35.00
2018-09-10T15:04:09.034Z,34.60
2018-09-10T15:06:36.605Z,34.30
2018-09-10T15:09:06.467Z,34.00
2018-09-10T15:11:34.147Z,33.70
2018-09-10T15:14:08.432Z,33.40
2018-09-10T15:16:35.944Z,33.40
2018-09-10T15:19:03.603Z,33.40
2018-09-10T15:21:31.103Z,33.30
2018-09-10T15:23:58.663Z,33.10
2018-09-10T15:26:26.251Z,32.80
2018-09-10T15:28:53.800Z,32.50
2018-09-10T15:31:21.380Z,32.20
2018-09-10T15:33:48.950Z,32.10
2018-09-10T15:36:16.518Z,32.10
2018-09-10T15:38:44.481Z,31.90
2018-09-10T15:41:12.061Z,31.80
2018-09-10T15:43:41.065Z,31.80
2018-09-10T15:46:08.607Z,31.80
2018-09-10T15:48:36.233Z,31.90
2018-09-10T15:51:03.911Z,31.90
2018-09-10T15:53:31.559Z,31.90
2018-09-10T15:55:59.112Z,31.90
2018-09-10T15:58:26.821Z,32.10
2018-09-10T16:00:54.395Z,32.10
2018-09-10T16:03:21.944Z,32.30
2018-09-10T16:05:49.925Z,32.30
2018-09-10T16:08:17.460Z,32.50
2018-09-10T16:10:45.138Z,32.40
2018-09-10T16:13:12.743Z,32.20
2018-09-10T16:15:40.307Z,31.90
2018-09-10T16:18:07.915Z,31.60
2018-09-10T16:20:35.668Z,31.40
2018-09-10T16:23:03.235Z,31.10
2018-09-10T16:25:31.015Z,30.80
2018-09-10T16:27:58.602Z,30.40
2018-09-10T16:30:26.163Z,30.10
2018-09-10T16:32:53.738Z,29.70
2018-09-10T16:35:21.387Z,29.50
2018-09-10T16:37:49.098Z,29.40
2018-09-10T16:40:16.728Z,29.20
2018-09-10T16:42:44.561Z,29.10
2018-09-10T16:45:12.153Z,28.90
2018-09-10T16:47:39.789Z,28.80
2018-09-10T16:50:07.474Z,28.70
2018-09-10T16:52:35.107Z,28.60
2018-09-10T16:55:02.796Z,28.50
2018-09-10T16:57:30.387Z,28.40
2018-09-10T16:59:57.982Z,28.30
2018-09-10T17:02:25.552Z,28.20
2018-09-10T17:04:53.420Z,28.00
2018-09-10T17:07:21.020Z,27.80
2018-09-10T17:09:48.675Z,27.60
2018-09-10T17:12:16.255Z,27.50
2018-09-10T17:14:43.862Z,27.40
2018-09-10T17:17:11.410Z,27.30
2018-09-10T17:19:39.000Z,27.20
2018-09-10T17:22:06.587Z,27.00
2018-09-10T17:24:34.223Z,26.90
2018-09-10T17:27:01.844Z,26.80
2018-09-10T17:29:29.414Z,26.70
2018-09-10T17:31:56.980Z,26.60
2018-09-10T17:34:24.539Z,26.50
2018-09-10T17:36:52.075Z,26.40
2018-09-10T17:39:19.623Z,26.20
2018-09-10T17:41:47.188Z,26.20
2018-09-10T17:44:14.768Z,26.00
2018-09-10T17:46:42.336Z,25.90
2018-09-10T17:49:09.932Z,25.80
2018-09-10T17:51:37.604Z,25.60
2018-09-10T17:54:05.211Z,25.50
2018-09-10T17:56:32.778Z,25.30
2018-09-10T17:59:00.367Z,25.20
2018-09-10T18:01:28.184Z,25.00
2018-09-10T18:03:55.732Z,24.80
2018-09-10T18:06:23.630Z,24.70
2018-09-10T18:08:51.289Z,24.50
2018-09-10T18:11:19.243Z,24.40
2018-09-10T18:13:47.004Z,24.10
2018-09-10T18:16:14.573Z,24.00
2018-09-10T18:18:42.148Z,23.80
2018-09-10T18:21:09.765Z,23.70
2018-09-10T18:23:37.414Z,23.50
2018-09-10T18:26:05.062Z,23.30
2018-09-10T18:28:32.614Z,23.20
2018-09-10T18:31:00.207Z,23.00
2018-09-10T18:33:27.818Z,22.90
2018-09-10T18:35:55.358Z,22.70
2018-09-10T18:38:23.046Z,22.60
2018-09-10T18:40:51.039Z,22.40
2018-09-10T18:43:18.566Z,22.30
2018-09-10T18:45:46.149Z,22.10
2018-09-10T18:48:13.742Z,22.00
2018-09-10T18:50:41.330Z,21.90
2018-09-10T18:53:09.049Z,21.70
2018-09-10T18:55:36.608Z,21.60
2018-09-10T18:58:04.278Z,21.40
2018-09-10T19:00:31.977Z,21.30
2018-09-10T19:03:00.065Z,21.20
2018-09-10T19:05:27.841Z,21.20
2018-09-10T19:07:55.506Z,21.00
2018-09-10T19:10:23.133Z,20.90
2018-09-10T19:12:50.798Z,20.90
2018-09-10T19:15:18.605Z,20.80
2018-09-10T19:17:46.394Z,20.70
2018-09-10T19:20:14.152Z,20.60
2018-09-10T19:22:42.089Z,20.60
2018-09-10T19:25:09.922Z,20.50
2018-09-10T19:27:37.769Z,20.40
2018-09-10T19:30:05.841Z,20.30
2018-09-10T19:32:33.520Z,20.20
2018-09-10T19:35:01.335Z,20.10
2018-09-10T19:37:28.978Z,20.00
2018-09-10T19:39:56.529Z,19.90
2018-09-10T19:42:24.109Z,19.80
2018-09-10T19:44:51.736Z,19.70
2018-09-10T19:47:20.340Z,19.70
2018-09-10T19:49:48.021Z,19.60
2018-09-10T19:52:15.907Z,19.50
2018-09-10T19:54:43.642Z,19.40
2018-09-10T19:57:11.229Z,19.40
2018-09-10T19:59:38.872Z,19.30
2018-09-10T20:02:06.461Z,19.30
2018-09-10T20:04:34.023Z,19.20
2018-09-10T20:07:01.816Z,19.10
2018-09-10T20:09:29.395Z,19.10
2018-09-10T20:11:57.009Z,19.00
2018-09-10T20:14:24.954Z,19.00
2018-09-10T20:16:52.543Z,18.90
2018-09-10T20:19:20.236Z,18.90
2018-09-10T20:21:47.796Z,18.80
2018-09-10T20:24:15.391Z,18.70
2018-09-10T20:26:42.989Z,18.70
2018-09-10T20:29:10.567Z,18.60
2018-09-10T20:31:38.161Z,18.60
2018-09-10T20:34:06.972Z,18.60
2018-09-10T20:36:35.653Z,18.50
2018-09-10T20:39:04.957Z,18.50
2018-09-10T20:41:32.603Z,18.40
2018-09-10T20:44:00.213Z,18.30
2018-09-10T20:46:27.820Z,18.30
2018-09-10T20:48:55.387Z,18.20
2018-09-10T20:51:23.320Z,18.10
2018-09-10T20:53:50.871Z,18.00
2018-09-10T20:56:18.480Z,17.90
2018-09-10T20:58:46.119Z,17.80
2018-09-10T21:01:13.660Z,17.70
2018-09-10T21:03:41.297Z,17.70
2018-09-10T21:06:08.928Z,17.70
2018-09-10T21:08:36.510Z,17.60
2018-09-10T21:11:04.175Z,17.60
2018-09-10T21:13:32.809Z,17.60
2018-09-10T21:16:00.413Z,17.50
2018-09-10T21:18:28.001Z,17.50
2018-09-10T21:20:55.728Z,17.50
2018-09-10T21:23:23.321Z,17.40
2018-09-10T21:25:50.879Z,17.40
2018-09-10T21:28:18.419Z,17.30
2018-09-10T21:30:45.981Z,17.30
2018-09-10T21:33:13.678Z,17.20
2018-09-10T21:35:41.174Z,17.20
2018-09-10T21:38:08.746Z,17.20
2018-09-10T21:40:36.357Z,17.10
2018-09-10T21:43:03.957Z,17.10
2018-09-10T21:45:31.563Z,17.10
2018-09-10T21:47:59.124Z,17.10
2018-09-10T21:50:26.664Z,17.10
2018-09-10T21:52:54.208Z,17.00
2018-09-10T21:55:21.907Z,17.00
2018-09-10T21:57:49.502Z,16.90
2018-09-10T22:00:17.167Z,16.90
2018-09-10T22:02:44.809Z,16.80
2018-09-10T22:05:12.413Z,16.80
2018-09-10T22:07:39.993Z,16.80
2018-09-10T22:10:07.702Z,16.80
2018-09-10T22:12:35.846Z,16.70
2018-09-10T22:15:03.547Z,16.70
2018-09-10T22:17:31.141Z,16.70
2018-09-10T22:19:58.864Z,16.60
2018-09-10T22:22:26.423Z,16.60
2018-09-10T22:24:53.975Z,16.50
2018-09-10T22:27:21.583Z,16.50
2018-09-10T22:29:49.168Z,16.50
2018-09-10T22:32:16.781Z,16.40
2018-09-10T22:34:44.343Z,16.40
2018-09-10T22:37:11.965Z,16.40
2018-09-10T22:39:39.540Z,16.30
2018-09-10T22:42:07.148Z,16.20
2018-09-10T22:44:34.705Z,16.20
2018-09-10T22:47:02.297Z,16.10
2018-09-10T22:49:29.825Z,16.10
2018-09-10T22:51:57.414Z,16.10
2018-09-10T22:54:24.977Z,16.10
2018-09-10T22:56:52.544Z,16.10
2018-09-10T22:59:20.136Z,16.00
2018-09-10T23:01:47.698Z,16.00
2018-09-10T23:04:15.256Z,15.90
2018-09-10T23:06:42.846Z,15.90
2018-09-10T23:09:10.420Z,15.80
2018-09-10T23:11:38.343Z,15.80
2018-09-10T23:14:05.975Z,15.70
2018-09-10T23:16:33.568Z,15.70
2018-09-10T23:19:01.195Z,15.70
2018-09-10T23:21:28.733Z,15.60
2018-09-10T23:23:56.308Z,15.60
2018-09-10T23:26:23.873Z,15.60
2018-09-10T23:28:51.455Z,15.60
2018-09-10T23:31:19.035Z,15.60
2018-09-10T23:33:46.610Z,15.60
2018-09-10T23:36:14.196Z,15.60
2018-09-10T23:38:41.805Z,15.50
2018-09-10T23:41:09.458Z,15.50
2018-09-10T23:43:37.017Z,15.40
2018-09-10T23:46:04.760Z,15.40
2018-09-10T23:48:32.315Z,15.40
2018-09-10T23:50:59.879Z,15.40
2018-09-10T23:53:27.545Z,15.40
2018-09-10T23:55:55.112Z,15.40
2018-09-10T23:58:22.807Z,15.40
